sensor_id;sensor_type;location;lat;lon;timestamp;pressure;altitude;pressure_sealevel;temperature;humidity
41830;BME280;38614;43.472;23.936;2023-01-25T00:01:51;101961.25;;;0.21;100.00
41830;BME280;38614;43.472;23.936;2023-01-25T00:04:39;101944.44;;;0.24;100.00
41830;BME280;38614;43.472;23.936;2023-01-25T00:07:26;101942.13;;;0.33;100.00
41830;BME280;38614;43.472;23.936;2023-01-25T00:10:14;101942.78;;;0.23;100.00
41830;BME280;38614;43.472;23.936;2023-01-25T00:13:02;101932.72;;;0.24;100.00
41830;BME280;38614;43.472;23.936;2023-01-25T00:15:50;101933.31;;;0.26;100.00
41830;BME280;38614;43.472;23.936;2023-01-25T00:18:38;101915.75;;;0.17;100.00
41830;BME280;38614;43.472;23.936;2023-01-25T00:21:25;101935.19;;;0.25;100.00
41830;BME280;38614;43.472;23.936;2023-01-25T00:24:13;101931.41;;;0.26;100.00
41830;BME280;38614;43.472;23.936;2023-01-25T00:27:01;101945.25;;;0.25;100.00
41830;BME280;38614;43.472;23.936;2023-01-25T00:29:50;101906.84;;;0.05;100.00
41830;BME280;38614;43.472;23.936;2023-01-25T00:32:48;101920.78;;;0.08;100.00
41830;BME280;38614;43.472;23.936;2023-01-25T00:35:39;101941.22;;;0.27;100.00
41830;BME280;38614;43.472;23.936;2023-01-25T00:38:33;101939.56;;;0.26;100.00
41830;BME280;38614;43.472;23.936;2023-01-25T00:41:23;101933.13;;;0.16;100.00
41830;BME280;38614;43.472;23.936;2023-01-25T00:44:12;101939.16;;;0.18;100.00
41830;BME280;38614;43.472;23.936;2023-01-25T00:47:00;101927.56;;;0.22;100.00
41830;BME280;38614;43.472;23.936;2023-01-25T00:49:48;101903.16;;;0.11;100.00
41830;BME280;38614;43.472;23.936;2023-01-25T00:52:36;101925.50;;;0.30;100.00
41830;BME280;38614;43.472;23.936;2023-01-25T00:55:24;101929.75;;;0.25;100.00
41830;BME280;38614;43.472;23.936;2023-01-25T00:58:12;101947.91;;;0.20;100.00
41830;BME280;38614;43.472;23.936;2023-01-25T01:01:00;101938.50;;;0.11;100.00
41830;BME280;38614;43.472;23.936;2023-01-25T01:03:50;101943.75;;;0.17;100.00
41830;BME280;38614;43.472;23.936;2023-01-25T01:06:39;101912.63;;;0.08;100.00
41830;BME280;38614;43.472;23.936;2023-01-25T01:09:27;101931.59;;;0.20;100.00
41830;BME280;38614;43.472;23.936;2023-01-25T01:12:16;101938.31;;;0.17;100.00
41830;BME280;38614;43.472;23.936;2023-01-25T01:15:05;101930.84;;;0.24;100.00
41830;BME280;38614;43.472;23.936;2023-01-25T01:17:54;101899.22;;;0.02;100.00
41830;BME280;38614;43.472;23.936;2023-01-25T01:20:47;101923.28;;;0.10;100.00
41830;BME280;38614;43.472;23.936;2023-01-25T01:23:37;101914.25;;;0.09;100.00
41830;BME280;38614;43.472;23.936;2023-01-25T01:26:25;101924.72;;;0.17;100.00
41830;BME280;38614;43.472;23.936;2023-01-25T01:29:13;101909.44;;;0.11;100.00
41830;BME280;38614;43.472;23.936;2023-01-25T01:32:01;101924.72;;;0.17;100.00
41830;BME280;38614;43.472;23.936;2023-01-25T01:34:49;101914.94;;;0.16;100.00
41830;BME280;38614;43.472;23.936;2023-01-25T01:37:41;101876.38;;;-0.14;100.00
41830;BME280;38614;43.472;23.936;2023-01-25T01:40:28;101909.50;;;0.16;100.00
41830;BME280;38614;43.472;23.936;2023-01-25T01:43:19;101910.31;;;0.17;100.00
41830;BME280;38614;43.472;23.936;2023-01-25T01:49:13;101910.97;;;0.24;100.00
41830;BME280;38614;43.472;23.936;2023-01-25T01:52:09;101894.25;;;0.15;100.00
41830;BME280;38614;43.472;23.936;2023-01-25T01:55:07;101896.00;;;0.21;100.00
41830;BME280;38614;43.472;23.936;2023-01-25T01:57:59;101869.94;;;0.09;100.00
41830;BME280;38614;43.472;23.936;2023-01-25T02:00:49;101870.13;;;0.02;100.00
41830;BME280;38614;43.472;23.936;2023-01-25T02:03:37;101897.47;;;0.29;100.00
41830;BME280;38614;43.472;23.936;2023-01-25T02:09:25;101900.94;;;0.24;100.00
41830;BME280;38614;43.472;23.936;2023-01-25T02:12:15;101906.31;;;0.19;100.00
41830;BME280;38614;43.472;23.936;2023-01-25T02:15:04;101896.00;;;0.21;100.00
41830;BME280;38614;43.472;23.936;2023-01-25T02:17:53;101886.25;;;0.25;100.00
41830;BME280;38614;43.472;23.936;2023-01-25T02:20:43;101897.81;;;0.33;100.00
41830;BME280;38614;43.472;23.936;2023-01-25T02:26:34;101894.31;;;0.37;100.00
41830;BME280;38614;43.472;23.936;2023-01-25T02:29:25;101894.50;;;0.31;100.00
41830;BME280;38614;43.472;23.936;2023-01-25T02:32:14;101884.63;;;0.24;100.00
41830;BME280;38614;43.472;23.936;2023-01-25T02:35:19;101887.59;;;0.23;100.00
41830;BME280;38614;43.472;23.936;2023-01-25T02:38:15;101859.47;;;0.17;100.00
41830;BME280;38614;43.472;23.936;2023-01-25T02:41:14;101884.63;;;0.24;100.00
41830;BME280;38614;43.472;23.936;2023-01-25T02:44:06;101886.81;;;0.27;100.00
41830;BME280;38614;43.472;23.936;2023-01-25T02:46:55;101849.53;;;0.06;100.00
41830;BME280;38614;43.472;23.936;2023-01-25T02:49:42;101883.28;;;0.27;100.00
41830;BME280;38614;43.472;23.936;2023-01-25T02:52:30;101865.94;;;0.11;100.00
41830;BME280;38614;43.472;23.936;2023-01-25T02:55:18;101858.50;;;0.07;100.00
41830;BME280;38614;43.472;23.936;2023-01-25T02:58:06;101879.19;;;0.24;100.00
41830;BME280;38614;43.472;23.936;2023-01-25T03:00:55;101860.00;;;0.14;100.00
41830;BME280;38614;43.472;23.936;2023-01-25T03:03:45;101856.69;;;0.12;100.00
41830;BME280;38614;43.472;23.936;2023-01-25T03:06:34;101877.03;;;0.26;100.00
41830;BME280;38614;43.472;23.936;2023-01-25T03:09:22;101877.22;;;0.20;100.00
41830;BME280;38614;43.472;23.936;2023-01-25T03:12:12;101864.75;;;0.07;100.00
41830;BME280;38614;43.472;23.936;2023-01-25T03:15:01;101869.28;;;0.18;100.00
41830;BME280;38614;43.472;23.936;2023-01-25T03:17:49;101877.78;;;0.22;100.00
41830;BME280;38614;43.472;23.936;2023-01-25T03:20:37;101878.59;;;0.22;100.00
41830;BME280;38614;43.472;23.936;2023-01-25T03:23:25;101870.75;;;0.26;100.00
41830;BME280;38614;43.472;23.936;2023-01-25T03:26:16;101855.31;;;0.10;100.00
41830;BME280;38614;43.472;23.936;2023-01-25T03:29:20;101867.91;;;0.16;100.00
41830;BME280;38614;43.472;23.936;2023-01-25T03:32:09;101871.94;;;0.13;100.00
41830;BME280;38614;43.472;23.936;2023-01-25T03:34:57;101866.56;;;0.18;100.00
41830;BME280;38614;43.472;23.936;2023-01-25T03:37:47;101865.00;;;0.22;100.00
41830;BME280;38614;43.472;23.936;2023-01-25T03:40:35;101861.78;;;0.25;100.00
41830;BME280;38614;43.472;23.936;2023-01-25T03:43:27;101869.88;;;0.20;100.00
41830;BME280;38614;43.472;23.936;2023-01-25T03:46:15;101869.47;;;0.28;100.00
41830;BME280;38614;43.472;23.936;2023-01-25T03:49:03;101869.78;;;0.15;100.00
41830;BME280;38614;43.472;23.936;2023-01-25T03:51:54;101857.84;;;0.16;100.00
41830;BME280;38614;43.472;23.936;2023-01-25T03:54:58;101861.22;;;0.07;100.00
41830;BME280;38614;43.472;23.936;2023-01-25T03:57:47;101859.16;;;0.14;100.00
41830;BME280;38614;43.472;23.936;2023-01-25T04:00:43;101872.00;;;0.18;100.00
41830;BME280;38614;43.472;23.936;2023-01-25T04:03:37;101853.47;;;0.15;100.00
41830;BME280;38614;43.472;23.936;2023-01-25T04:06:26;101864.69;;;0.19;100.00
41830;BME280;38614;43.472;23.936;2023-01-25T04:09:14;101859.75;;;0.16;100.00
41830;BME280;38614;43.472;23.936;2023-01-25T04:12:07;101865.28;;;0.21;100.00
41830;BME280;38614;43.472;23.936;2023-01-25T04:14:57;101865.00;;;0.06;100.00
41830;BME280;38614;43.472;23.936;2023-01-25T04:17:45;101857.19;;;0.09;100.00
41830;BME280;38614;43.472;23.936;2023-01-25T04:20:39;101833.97;;;-0.15;100.00
41830;BME280;38614;43.472;23.936;2023-01-25T04:23:29;101866.19;;;0.10;100.00
41830;BME280;38614;43.472;23.936;2023-01-25T04:26:17;101844.59;;;0.03;100.00
41830;BME280;38614;43.472;23.936;2023-01-25T04:29:12;101863.78;;;0.13;100.00
41830;BME280;38614;43.472;23.936;2023-01-25T04:32:00;101864.28;;;0.10;100.00
41830;BME280;38614;43.472;23.936;2023-01-25T04:34:49;101858.75;;;0.05;100.00
41830;BME280;38614;43.472;23.936;2023-01-25T04:37:42;101842.84;;;-0.03;100.00
41830;BME280;38614;43.472;23.936;2023-01-25T04:40:31;101869.22;;;0.13;100.00
41830;BME280;38614;43.472;23.936;2023-01-25T04:43:24;101873.75;;;0.08;100.00
41830;BME280;38614;43.472;23.936;2023-01-25T04:46:17;101879.28;;;0.13;100.00
41830;BME280;38614;43.472;23.936;2023-01-25T04:49:06;101865.31;;;0.09;100.00
41830;BME280;38614;43.472;23.936;2023-01-25T04:51:54;101857.13;;;0.04;100.00
41830;BME280;38614;43.472;23.936;2023-01-25T04:54:43;101870.88;;;0.14;100.00
41830;BME280;38614;43.472;23.936;2023-01-25T04:57:31;101841.78;;;-0.02;100.00
41830;BME280;38614;43.472;23.936;2023-01-25T05:00:19;101831.31;;;-0.10;100.00
41830;BME280;38614;43.472;23.936;2023-01-25T05:03:08;101868.97;;;0.15;100.00
41830;BME280;38614;43.472;23.936;2023-01-25T05:05:56;101859.72;;;-0.01;100.00
41830;BME280;38614;43.472;23.936;2023-01-25T05:08:45;101852.59;;;-0.07;100.00
41830;BME280;38614;43.472;23.936;2023-01-25T05:11:34;101845.31;;;-0.02;100.00
41830;BME280;38614;43.472;23.936;2023-01-25T05:14:28;101863.69;;;0.08;100.00
41830;BME280;38614;43.472;23.936;2023-01-25T05:17:18;101859.00;;;0.04;100.00
41830;BME280;38614;43.472;23.936;2023-01-25T05:20:07;101862.03;;;0.07;100.00
41830;BME280;38614;43.472;23.936;2023-01-25T05:22:55;101843.75;;;-0.14;100.00
41830;BME280;38614;43.472;23.936;2023-01-25T05:25:42;101876.63;;;0.01;100.00
41830;BME280;38614;43.472;23.936;2023-01-25T05:28:51;101859.16;;;-0.03;100.00
41830;BME280;38614;43.472;23.936;2023-01-25T05:31:50;101861.06;;;0.13;100.00
41830;BME280;38614;43.472;23.936;2023-01-25T05:34:39;101858.59;;;0.12;100.00
41830;BME280;38614;43.472;23.936;2023-01-25T05:37:27;101856.13;;;0.10;100.00
41830;BME280;38614;43.472;23.936;2023-01-25T05:40:21;101874.16;;;0.16;100.00
41830;BME280;38614;43.472;23.936;2023-01-25T05:43:11;101869.13;;;0.08;100.00
41830;BME280;38614;43.472;23.936;2023-01-25T05:46:00;101878.75;;;0.16;100.00
41830;BME280;38614;43.472;23.936;2023-01-25T05:48:48;101883.38;;;0.15;100.00
41830;BME280;38614;43.472;23.936;2023-01-25T05:51:36;101871.38;;;0.11;100.00
41830;BME280;38614;43.472;23.936;2023-01-25T05:54:25;101865.69;;;0.13;100.00
41830;BME280;38614;43.472;23.936;2023-01-25T05:57:20;101868.06;;;0.09;100.00
41830;BME280;38614;43.472;23.936;2023-01-25T06:00:09;101880.50;;;0.22;100.00
41830;BME280;38614;43.472;23.936;2023-01-25T06:03:02;101878.19;;;0.31;100.00
41830;BME280;38614;43.472;23.936;2023-01-25T06:05:59;101881.16;;;0.29;100.00
41830;BME280;38614;43.472;23.936;2023-01-25T06:08:52;101795.66;;;-0.31;100.00
41830;BME280;38614;43.472;23.936;2023-01-25T06:11:44;101884.47;;;0.31;100.00
41830;BME280;38614;43.472;23.936;2023-01-25T06:14:32;101875.72;;;0.29;100.00
41830;BME280;38614;43.472;23.936;2023-01-25T06:17:22;101881.38;;;0.27;100.00
41830;BME280;38614;43.472;23.936;2023-01-25T06:20:15;101866.00;;;0.16;100.00
41830;BME280;38614;43.472;23.936;2023-01-25T06:23:19;101882.72;;;0.25;100.00
41830;BME280;38614;43.472;23.936;2023-01-25T06:26:10;101853.97;;;0.12;100.00
41830;BME280;38614;43.472;23.936;2023-01-25T06:28:58;101874.97;;;0.34;100.00
41830;BME280;38614;43.472;23.936;2023-01-25T06:31:46;101856.59;;;0.24;100.00
41830;BME280;38614;43.472;23.936;2023-01-25T06:34:33;101886.09;;;0.32;100.00
41830;BME280;38614;43.472;23.936;2023-01-25T06:37:21;101879.34;;;0.35;100.00
41830;BME280;38614;43.472;23.936;2023-01-25T06:40:10;101871.69;;;0.32;100.00
41830;BME280;38614;43.472;23.936;2023-01-25T06:43:08;101895.66;;;0.35;100.00
41830;BME280;38614;43.472;23.936;2023-01-25T06:46:08;101882.88;;;0.35;100.00
41830;BME280;38614;43.472;23.936;2023-01-25T06:48:56;101873.50;;;0.26;100.00
41830;BME280;38614;43.472;23.936;2023-01-25T06:51:44;101887.03;;;0.38;100.00
41830;BME280;38614;43.472;23.936;2023-01-25T06:54:32;101892.50;;;0.43;100.00
41830;BME280;38614;43.472;23.936;2023-01-25T06:57:20;101858.00;;;0.26;100.00
41830;BME280;38614;43.472;23.936;2023-01-25T07:00:08;101895.75;;;0.40;100.00
41830;BME280;38614;43.472;23.936;2023-01-25T07:02:56;101891.38;;;0.39;100.00
41830;BME280;38614;43.472;23.936;2023-01-25T07:05:43;101863.78;;;0.30;100.00
41830;BME280;38614;43.472;23.936;2023-01-25T07:08:32;101887.66;;;0.45;100.00
41830;BME280;38614;43.472;23.936;2023-01-25T07:11:20;101880.41;;;0.50;100.00
41830;BME280;38614;43.472;23.936;2023-01-25T07:14:08;101884.34;;;0.60;100.00
41830;BME280;38614;43.472;23.936;2023-01-25T07:16:56;101877.50;;;0.57;100.00
41830;BME280;38614;43.472;23.936;2023-01-25T07:19:44;101853.31;;;0.39;100.00
41830;BME280;38614;43.472;23.936;2023-01-25T07:22:33;101886.25;;;0.59;100.00
41830;BME280;38614;43.472;23.936;2023-01-25T07:25:20;101866.63;;;0.57;100.00
41830;BME280;38614;43.472;23.936;2023-01-25T07:28:08;101859.16;;;0.69;100.00
41830;BME280;38614;43.472;23.936;2023-01-25T07:31:02;101882.97;;;0.79;100.00
41830;BME280;38614;43.472;23.936;2023-01-25T07:33:52;101880.69;;;0.71;100.00
41830;BME280;38614;43.472;23.936;2023-01-25T07:36:40;101879.94;;;0.75;100.00
41830;BME280;38614;43.472;23.936;2023-01-25T07:39:27;101886.41;;;0.91;100.00
41830;BME280;38614;43.472;23.936;2023-01-25T07:42:15;101884.00;;;0.95;100.00
41830;BME280;38614;43.472;23.936;2023-01-25T07:45:10;101876.09;;;0.93;100.00
41830;BME280;38614;43.472;23.936;2023-01-25T07:47:59;101886.69;;;0.73;100.00
41830;BME280;38614;43.472;23.936;2023-01-25T07:50:47;101891.06;;;0.74;100.00
41830;BME280;38614;43.472;23.936;2023-01-25T07:53:59;101899.19;;;0.91;100.00
41830;BME280;38614;43.472;23.936;2023-01-25T07:56:48;101880.56;;;0.82;100.00
41830;BME280;38614;43.472;23.936;2023-01-25T07:59:35;101882.72;;;0.80;100.00
41830;BME280;38614;43.472;23.936;2023-01-25T08:02:23;101883.06;;;0.84;100.00
41830;BME280;38614;43.472;23.936;2023-01-25T08:05:11;101887.16;;;0.87;100.00
41830;BME280;38614;43.472;23.936;2023-01-25T08:07:59;101883.38;;;0.88;100.00
41830;BME280;38614;43.472;23.936;2023-01-25T08:10:46;101871.47;;;0.94;100.00
41830;BME280;38614;43.472;23.936;2023-01-25T08:13:34;101856.16;;;0.88;100.00
41830;BME280;38614;43.472;23.936;2023-01-25T08:16:24;101863.38;;;0.99;100.00
41830;BME280;38614;43.472;23.936;2023-01-25T08:19:12;101858.34;;;0.91;100.00
41830;BME280;38614;43.472;23.936;2023-01-25T08:22:00;101882.06;;;1.12;100.00
41830;BME280;38614;43.472;23.936;2023-01-25T08:24:48;101877.66;;;1.11;100.00
41830;BME280;38614;43.472;23.936;2023-01-25T08:27:36;101878.00;;;1.14;100.00
41830;BME280;38614;43.472;23.936;2023-01-25T08:30:24;101876.03;;;1.10;100.00
41830;BME280;38614;43.472;23.936;2023-01-25T08:33:12;101878.38;;;1.23;100.00
41830;BME280;38614;43.472;23.936;2023-01-25T08:36:00;101889.28;;;1.23;100.00
41830;BME280;38614;43.472;23.936;2023-01-25T08:38:55;101885.38;;;1.19;100.00
41830;BME280;38614;43.472;23.936;2023-01-25T08:41:44;101882.75;;;1.24;100.00
41830;BME280;38614;43.472;23.936;2023-01-25T08:44:32;101883.78;;;1.45;100.00
41830;BME280;38614;43.472;23.936;2023-01-25T08:47:19;101882.78;;;1.51;100.00
41830;BME280;38614;43.472;23.936;2023-01-25T08:50:07;101882.81;;;1.56;100.00
41830;BME280;38614;43.472;23.936;2023-01-25T08:52:56;101878.91;;;1.47;100.00
41830;BME280;38614;43.472;23.936;2023-01-25T08:55:44;101856.03;;;1.48;100.00
41830;BME280;38614;43.472;23.936;2023-01-25T08:58:32;101883.28;;;1.75;100.00
41830;BME280;38614;43.472;23.936;2023-01-25T09:01:20;101882.88;;;1.88;100.00
41830;BME280;38614;43.472;23.936;2023-01-25T09:04:08;101880.66;;;1.85;100.00
41830;BME280;38614;43.472;23.936;2023-01-25T09:06:56;101839.53;;;1.60;100.00
41830;BME280;38614;43.472;23.936;2023-01-25T09:09:44;101859.28;;;1.72;100.00
41830;BME280;38614;43.472;23.936;2023-01-25T09:12:32;101882.19;;;1.76;100.00
41830;BME280;38614;43.472;23.936;2023-01-25T09:15:20;101864.81;;;1.82;100.00
41830;BME280;38614;43.472;23.936;2023-01-25T09:18:09;101869.44;;;1.82;100.00
41830;BME280;38614;43.472;23.936;2023-01-25T09:21:04;101866.44;;;1.78;100.00
41830;BME280;38614;43.472;23.936;2023-01-25T09:23:53;101872.59;;;1.95;100.00
41830;BME280;38614;43.472;23.936;2023-01-25T09:26:56;101849.69;;;1.96;100.00
41830;BME280;38614;43.472;23.936;2023-01-25T09:29:46;101865.16;;;1.91;100.00
41830;BME280;38614;43.472;23.936;2023-01-25T09:32:49;101836.00;;;1.91;100.00
41830;BME280;38614;43.472;23.936;2023-01-25T09:35:37;101843.97;;;1.98;100.00
41830;BME280;38614;43.472;23.936;2023-01-25T09:38:25;101846.16;;;1.96;100.00
41830;BME280;38614;43.472;23.936;2023-01-25T09:41:41;101836.34;;;2.00;100.00
41830;BME280;38614;43.472;23.936;2023-01-25T09:47:47;101789.66;;;1.91;100.00
41830;BME280;38614;43.472;23.936;2023-01-25T09:54:08;101778.03;;;2.06;100.00
41830;BME280;38614;43.472;23.936;2023-01-25T09:56:57;101772.19;;;1.87;100.00
41830;BME280;38614;43.472;23.936;2023-01-25T09:59:48;101798.84;;;2.17;100.00
41830;BME280;38614;43.472;23.936;2023-01-25T10:02:48;101793.38;;;2.17;100.00
41830;BME280;38614;43.472;23.936;2023-01-25T10:05:43;101776.72;;;2.14;100.00
41830;BME280;38614;43.472;23.936;2023-01-25T10:08:55;101792.84;;;2.15;100.00
41830;BME280;38614;43.472;23.936;2023-01-25T10:11:45;101782.47;;;2.17;100.00
41830;BME280;38614;43.472;23.936;2023-01-25T10:14:34;101764.75;;;2.15;100.00
41830;BME280;38614;43.472;23.936;2023-01-25T10:17:37;101743.47;;;2.17;100.00
41830;BME280;38614;43.472;23.936;2023-01-25T10:24:03;101771.13;;;2.36;100.00
41830;BME280;38614;43.472;23.936;2023-01-25T10:26:57;101765.88;;;2.24;100.00
41830;BME280;38614;43.472;23.936;2023-01-25T10:29:50;101759.91;;;2.27;100.00
41830;BME280;38614;43.472;23.936;2023-01-25T10:32:40;101751.88;;;2.05;100.00
41830;BME280;38614;43.472;23.936;2023-01-25T10:35:46;101765.25;;;2.12;100.00
41830;BME280;38614;43.472;23.936;2023-01-25T10:38:43;101745.41;;;2.21;100.00
41830;BME280;38614;43.472;23.936;2023-01-25T10:41:39;101746.97;;;2.12;100.00
41830;BME280;38614;43.472;23.936;2023-01-25T10:44:28;101733.31;;;2.07;100.00
41830;BME280;38614;43.472;23.936;2023-01-25T10:47:23;101683.88;;;1.88;100.00
41830;BME280;38614;43.472;23.936;2023-01-25T10:50:41;101729.09;;;2.32;100.00
41830;BME280;38614;43.472;23.936;2023-01-25T10:56:24;101706.44;;;2.31;100.00
41830;BME280;38614;43.472;23.936;2023-01-25T10:59:23;101682.09;;;2.14;100.00
41830;BME280;38614;43.472;23.936;2023-01-25T11:05:35;101697.16;;;2.32;100.00
41830;BME280;38614;43.472;23.936;2023-01-25T11:08:34;101670.22;;;2.46;100.00
41830;BME280;38614;43.472;23.936;2023-01-25T11:11:34;101678.88;;;2.27;100.00
41830;BME280;38614;43.472;23.936;2023-01-25T11:14:25;101669.06;;;2.26;100.00
41830;BME280;38614;43.472;23.936;2023-01-25T11:17:25;101681.34;;;2.29;100.00
41830;BME280;38614;43.472;23.936;2023-01-25T11:20:18;101672.88;;;2.25;100.00
41830;BME280;38614;43.472;23.936;2023-01-25T11:26:16;101671.31;;;2.50;100.00
41830;BME280;38614;43.472;23.936;2023-01-25T11:29:24;101666.94;;;2.49;100.00
41830;BME280;38614;43.472;23.936;2023-01-25T11:32:19;101634.66;;;2.20;100.00
41830;BME280;38614;43.472;23.936;2023-01-25T11:35:24;101637.13;;;2.22;100.00
41830;BME280;38614;43.472;23.936;2023-01-25T11:38:21;101639.06;;;2.26;100.00
41830;BME280;38614;43.472;23.936;2023-01-25T11:41:19;101653.28;;;2.34;100.00
41830;BME280;38614;43.472;23.936;2023-01-25T11:47:15;101656.00;;;2.34;100.00
41830;BME280;38614;43.472;23.936;2023-01-25T11:53:38;101631.50;;;2.59;100.00
41830;BME280;38614;43.472;23.936;2023-01-25T12:06:16;101627.38;;;2.41;100.00
41830;BME280;38614;43.472;23.936;2023-01-25T12:12:58;101631.78;;;2.52;100.00
41830;BME280;38614;43.472;23.936;2023-01-25T12:15:52;101623.56;;;2.42;100.00
41830;BME280;38614;43.472;23.936;2023-01-25T12:19:00;101626.03;;;2.49;100.00
41830;BME280;38614;43.472;23.936;2023-01-25T12:34:29;101612.09;;;2.40;100.00
41830;BME280;38614;43.472;23.936;2023-01-25T12:37:35;101602.81;;;2.36;100.00
41830;BME280;38614;43.472;23.936;2023-01-25T12:40:47;101603.28;;;2.18;100.00
41830;BME280;38614;43.472;23.936;2023-01-25T12:43:40;101606.28;;;2.21;100.00
41830;BME280;38614;43.472;23.936;2023-01-25T12:46:40;101592.69;;;2.32;100.00
41830;BME280;38614;43.472;23.936;2023-01-25T12:49:33;101613.19;;;2.34;100.00
41830;BME280;38614;43.472;23.936;2023-01-25T12:52:31;101610.94;;;2.16;100.00
41830;BME280;38614;43.472;23.936;2023-01-25T12:55:19;101595.69;;;2.30;100.00
41830;BME280;38614;43.472;23.936;2023-01-25T13:10:23;101564.56;;;2.21;100.00
41830;BME280;38614;43.472;23.936;2023-01-25T13:13:27;101560.78;;;2.27;100.00
41830;BME280;38614;43.472;23.936;2023-01-25T13:25:32;101570.31;;;2.24;100.00
41830;BME280;38614;43.472;23.936;2023-01-25T13:28:43;101558.34;;;2.41;100.00
41830;BME280;38614;43.472;23.936;2023-01-25T13:37:32;101558.63;;;2.34;100.00
41830;BME280;38614;43.472;23.936;2023-01-25T13:40:30;101526.34;;;2.00;100.00
41830;BME280;38614;43.472;23.936;2023-01-25T13:43:19;101549.22;;;1.94;100.00
41830;BME280;38614;43.472;23.936;2023-01-25T13:46:11;101558.28;;;2.10;100.00
41830;BME280;38614;43.472;23.936;2023-01-25T13:49:02;101557.41;;;1.99;100.00
41830;BME280;38614;43.472;23.936;2023-01-25T13:51:51;101534.47;;;1.85;100.00
41830;BME280;38614;43.472;23.936;2023-01-25T13:54:43;101561.53;;;2.07;100.00
41830;BME280;38614;43.472;23.936;2023-01-25T13:57:33;101568.34;;;2.10;100.00
41830;BME280;38614;43.472;23.936;2023-01-25T14:00:21;101575.19;;;2.07;100.00
41830;BME280;38614;43.472;23.936;2023-01-25T14:03:10;101536.06;;;1.76;100.00
41830;BME280;38614;43.472;23.936;2023-01-25T14:05:59;101557.13;;;1.91;100.00
41830;BME280;38614;43.472;23.936;2023-01-25T14:08:50;101554.41;;;2.01;100.00
41830;BME280;38614;43.472;23.936;2023-01-25T14:12:00;101551.94;;;1.94;100.00
41830;BME280;38614;43.472;23.936;2023-01-25T14:14:49;101557.97;;;2.02;100.00
41830;BME280;38614;43.472;23.936;2023-01-25T14:17:36;101557.69;;;2.03;100.00
41830;BME280;38614;43.472;23.936;2023-01-25T14:20:24;101563.19;;;2.08;100.00
41830;BME280;38614;43.472;23.936;2023-01-25T14:26:26;101529.53;;;1.77;100.00
41830;BME280;38614;43.472;23.936;2023-01-25T14:29:18;101538.00;;;1.81;100.00
41830;BME280;38614;43.472;23.936;2023-01-25T14:32:24;101542.63;;;1.80;100.00
41830;BME280;38614;43.472;23.936;2023-01-25T14:35:44;101549.16;;;1.84;100.00
41830;BME280;38614;43.472;23.936;2023-01-25T14:38:52;101540.69;;;1.76;100.00
41830;BME280;38614;43.472;23.936;2023-01-25T14:41:40;101551.34;;;1.82;100.00
41830;BME280;38614;43.472;23.936;2023-01-25T14:44:45;101540.41;;;1.72;100.00
41830;BME280;38614;43.472;23.936;2023-01-25T14:47:34;101548.63;;;1.77;100.00
41830;BME280;38614;43.472;23.936;2023-01-25T14:50:35;101551.03;;;1.74;100.00
41830;BME280;38614;43.472;23.936;2023-01-25T14:53:23;101551.25;;;1.62;100.00
41830;BME280;38614;43.472;23.936;2023-01-25T14:56:23;101545.22;;;1.55;100.00
41830;BME280;38614;43.472;23.936;2023-01-25T14:59:52;101546.91;;;1.61;100.00
41830;BME280;38614;43.472;23.936;2023-01-25T15:02:52;101548.00;;;1.65;100.00
41830;BME280;38614;43.472;23.936;2023-01-25T15:05:46;101549.09;;;1.64;100.00
41830;BME280;38614;43.472;23.936;2023-01-25T15:08:37;101535.91;;;1.46;100.00
41830;BME280;38614;43.472;23.936;2023-01-25T15:11:32;101537.06;;;1.55;100.00
41830;BME280;38614;43.472;23.936;2023-01-25T15:14:26;101554.53;;;1.59;100.00
41830;BME280;38614;43.472;23.936;2023-01-25T15:20:39;101560.75;;;1.49;100.00
41830;BME280;38614;43.472;23.936;2023-01-25T15:23:28;101557.97;;;1.44;100.00
41830;BME280;38614;43.472;23.936;2023-01-25T15:26:27;101567.44;;;1.31;100.00
41830;BME280;38614;43.472;23.936;2023-01-25T15:29:18;101551.34;;;1.30;100.00
41830;BME280;38614;43.472;23.936;2023-01-25T15:32:17;101560.38;;;1.30;100.00
41830;BME280;38614;43.472;23.936;2023-01-25T15:35:13;101555.69;;;1.26;100.00
41830;BME280;38614;43.472;23.936;2023-01-25T15:38:01;101566.63;;;1.31;100.00
41830;BME280;38614;43.472;23.936;2023-01-25T15:40:50;101558.69;;;1.24;100.00
41830;BME280;38614;43.472;23.936;2023-01-25T15:43:38;101552.09;;;1.20;100.00
41830;BME280;38614;43.472;23.936;2023-01-25T15:46:27;101554.03;;;1.25;100.00
41830;BME280;38614;43.472;23.936;2023-01-25T15:49:22;101557.91;;;1.34;100.00
41830;BME280;38614;43.472;23.936;2023-01-25T15:52:10;101554.00;;;1.20;100.00
41830;BME280;38614;43.472;23.936;2023-01-25T15:54:58;101551.47;;;1.08;100.00
41830;BME280;38614;43.472;23.936;2023-01-25T15:57:48;101553.94;;;1.09;100.00
41830;BME280;38614;43.472;23.936;2023-01-25T16:00:36;101530.72;;;1.02;100.00
41830;BME280;38614;43.472;23.936;2023-01-25T16:03:24;101546.00;;;1.03;100.00
41830;BME280;38614;43.472;23.936;2023-01-25T16:12:09;101542.72;;;1.01;100.00
41830;BME280;38614;43.472;23.936;2023-01-25T16:14:57;101533.97;;;0.94;100.00
41830;BME280;38614;43.472;23.936;2023-01-25T16:17:45;101552.81;;;1.05;100.00
41830;BME280;38614;43.472;23.936;2023-01-25T16:20:33;101557.97;;;1.02;100.00
41830;BME280;38614;43.472;23.936;2023-01-25T16:23:20;101566.38;;;1.00;100.00
41830;BME280;38614;43.472;23.936;2023-01-25T16:26:44;101575.91;;;0.98;100.00
41830;BME280;38614;43.472;23.936;2023-01-25T16:29:35;101537.28;;;0.69;100.00